createdAt,value
2022-07-28T00:00:51.428Z,61.90
2022-07-28T00:03:18.495Z,62.40
2022-07-28T00:05:50.124Z,62.40
2022-07-28T00:08:19.670Z,62.60
2022-07-28T00:10:48.688Z,62.80
2022-07-28T00:13:15.713Z,63.20
2022-07-28T00:15:42.542Z,63.70
2022-07-28T00:18:11.949Z,63.90
2022-07-28T00:20:41.220Z,64.00
2022-07-28T00:23:08.008Z,64.00
2022-07-28T00:25:34.842Z,64.30
2022-07-28T00:28:01.627Z,64.90
2022-07-28T00:30:31.582Z,65.10
2022-07-28T00:32:58.439Z,65.50
2022-07-28T00:35:31.069Z,65.60
2022-07-28T00:37:59.088Z,65.60
2022-07-28T00:40:47.219Z,65.90
2022-07-28T00:43:17.018Z,66.60
2022-07-28T00:45:43.955Z,67.10
2022-07-28T00:48:13.009Z,67.50
2022-07-28T00:50:40.889Z,67.70
2022-07-28T00:53:08.831Z,68.50
2022-07-28T00:56:03.669Z,69.00
2022-07-28T00:58:22.989Z,69.90
2022-07-28T01:00:52.248Z,70.40
2022-07-28T01:03:19.539Z,70.40
2022-07-28T01:05:56.699Z,71.50
2022-07-28T01:08:48.146Z,71.50
2022-07-28T01:11:24.350Z,72.60
2022-07-28T01:14:07.465Z,73.00
2022-07-28T01:16:41.327Z,73.40
2022-07-28T01:19:26.515Z,74.00
2022-07-28T01:21:58.048Z,74.90
2022-07-28T01:24:31.038Z,75.20
2022-07-28T01:27:04.713Z,76.00
2022-07-28T01:29:49.164Z,76.50
2022-07-28T01:32:21.177Z,76.70
2022-07-28T01:34:58.814Z,77.30
2022-07-28T01:37:29.213Z,77.90
2022-07-28T01:40:01.270Z,78.40
2022-07-28T01:42:37.192Z,78.70
2022-07-28T01:45:05.356Z,79.20
2022-07-28T01:47:34.697Z,80.00
2022-07-28T01:50:06.597Z,80.00
2022-07-28T01:52:35.329Z,80.30
2022-07-28T01:55:03.472Z,80.80
2022-07-28T01:57:34.071Z,81.90
2022-07-28T02:00:06.031Z,83.80
2022-07-28T02:02:36.770Z,84.80
2022-07-28T02:05:05.578Z,85.40
2022-07-28T02:07:35.327Z,86.70
2022-07-28T02:10:04.747Z,87.60
2022-07-28T02:12:37.183Z,88.50
2022-07-28T02:15:06.736Z,89.50
2022-07-28T02:17:35.189Z,90.30
2022-07-28T02:20:05.114Z,90.80
2022-07-28T02:22:34.113Z,91.20
2022-07-28T02:25:01.631Z,91.20
2022-07-28T02:27:48.078Z,91.40
2022-07-28T02:30:19.663Z,91.50
2022-07-28T02:33:01.367Z,92.30
2022-07-28T02:35:38.706Z,92.70
2022-07-28T02:38:19.103Z,93.40
2022-07-28T02:40:51.842Z,94.00
2022-07-28T02:43:25.368Z,94.70
2022-07-28T02:45:54.406Z,94.90
2022-07-28T02:48:32.230Z,94.90
2022-07-28T02:51:01.005Z,94.60
2022-07-28T02:53:31.638Z,94.90
2022-07-28T02:56:03.104Z,94.70
2022-07-28T02:58:34.043Z,94.20
2022-07-28T03:01:01.426Z,94.10
2022-07-28T03:03:28.912Z,93.70
2022-07-28T03:06:00.508Z,93.60
2022-07-28T03:08:27.557Z,93.90
2022-07-28T03:11:13.184Z,93.90
2022-07-28T03:13:42.683Z,94.10
2022-07-28T03:16:09.911Z,94.40
2022-07-28T03:18:36.942Z,95.30
2022-07-28T03:21:04.122Z,95.60
2022-07-28T03:23:39.766Z,96.10
2022-07-28T03:26:15.449Z,96.40
2022-07-28T03:28:43.310Z,96.90
2022-07-28T03:31:12.245Z,97.30
2022-07-28T03:33:41.960Z,97.90
2022-07-28T03:36:14.750Z,98.30
2022-07-28T03:38:46.116Z,98.30
2022-07-28T03:41:15.019Z,98.80
2022-07-28T03:43:43.032Z,99.00
2022-07-28T03:46:13.425Z,99.40
2022-07-28T03:48:40.583Z,99.90
2022-07-28T03:51:07.644Z,99.90
2022-07-28T03:53:34.736Z,99.90
2022-07-28T03:56:03.290Z,99.90
2022-07-28T03:58:30.869Z,99.90
2022-07-28T04:01:00.495Z,99.90
2022-07-28T04:03:42.837Z,99.90
2022-07-28T04:06:12.968Z,99.90
2022-07-28T04:08:42.124Z,99.90
2022-07-28T04:11:08.989Z,99.90
2022-07-28T04:13:37.947Z,99.90
2022-07-28T04:16:06.847Z,99.90
2022-07-28T04:18:33.862Z,99.90
2022-07-28T04:21:00.879Z,99.90
2022-07-28T04:23:28.274Z,99.90
2022-07-28T04:25:55.392Z,99.90
2022-07-28T04:28:22.490Z,99.90
2022-07-28T04:30:49.252Z,99.90
2022-07-28T04:33:18.573Z,99.90
2022-07-28T04:35:47.021Z,99.90
2022-07-28T04:38:18.064Z,99.90
2022-07-28T04:40:45.353Z,99.90
2022-07-28T04:43:12.157Z,99.90
2022-07-28T04:45:39.349Z,99.90
2022-07-28T04:48:13.499Z,99.90
2022-07-28T04:50:42.150Z,99.80
2022-07-28T04:53:12.164Z,99.10
2022-07-28T04:55:41.101Z,98.70
2022-07-28T04:58:08.706Z,97.70
2022-07-28T05:00:41.109Z,97.20
2022-07-28T05:03:08.026Z,96.60
2022-07-28T05:05:34.837Z,96.20
2022-07-28T05:08:01.636Z,96.30
2022-07-28T05:10:28.558Z,95.40
2022-07-28T05:12:55.440Z,94.80
2022-07-28T05:15:22.856Z,94.40
2022-07-28T05:17:50.126Z,93.90
2022-07-28T05:20:17.590Z,93.60
2022-07-28T05:22:50.916Z,93.20
2022-07-28T05:25:23.537Z,92.90
2022-07-28T05:27:51.823Z,92.70
2022-07-28T05:30:19.790Z,92.40
2022-07-28T05:32:46.783Z,92.00
2022-07-28T05:35:13.625Z,91.60
2022-07-28T05:37:40.494Z,91.10
2022-07-28T05:40:15.596Z,90.70
2022-07-28T05:42:47.708Z,90.50
2022-07-28T05:45:19.176Z,90.20
2022-07-28T05:47:46.994Z,89.20
2022-07-28T05:50:15.472Z,88.30
2022-07-28T05:52:42.666Z,87.70
2022-07-28T05:55:10.040Z,87.50
2022-07-28T05:57:40.526Z,86.80
2022-07-28T06:00:16.417Z,85.40
2022-07-28T06:02:49.256Z,84.50
2022-07-28T06:05:23.322Z,84.60
2022-07-28T06:07:52.650Z,84.20
2022-07-28T06:10:24.050Z,84.00
2022-07-28T06:12:54.897Z,84.10
2022-07-28T06:15:28.279Z,83.60
2022-07-28T06:17:55.706Z,83.40
2022-07-28T06:20:25.593Z,83.00
2022-07-28T06:22:56.700Z,82.20
2022-07-28T06:25:26.041Z,82.30
2022-07-28T06:27:56.167Z,81.70
2022-07-28T06:30:25.875Z,80.10
2022-07-28T06:32:52.881Z,79.90
2022-07-28T06:35:24.828Z,79.20
2022-07-28T06:37:55.318Z,78.30
2022-07-28T06:40:22.266Z,78.20
2022-07-28T06:42:49.971Z,77.70
2022-07-28T06:45:21.238Z,77.60
2022-07-28T06:47:55.939Z,76.60
2022-07-28T06:50:25.574Z,75.40
2022-07-28T06:52:56.703Z,74.60
2022-07-28T06:55:23.617Z,73.80
2022-07-28T06:57:50.852Z,73.10
2022-07-28T07:00:17.928Z,72.50
2022-07-28T07:02:44.755Z,71.80
2022-07-28T07:05:17.430Z,71.30
2022-07-28T07:07:46.373Z,71.70
2022-07-28T07:10:13.194Z,70.80
2022-07-28T07:12:40.297Z,70.00
2022-07-28T07:15:08.583Z,70.10
2022-07-28T07:17:37.407Z,69.60
2022-07-28T07:20:06.855Z,68.70
2022-07-28T07:22:33.791Z,68.60
2022-07-28T07:25:13.063Z,68.40
2022-07-28T07:27:40.043Z,68.30
2022-07-28T07:30:10.705Z,68.00
2022-07-28T07:32:43.065Z,67.00
2022-07-28T07:35:12.682Z,66.50
2022-07-28T07:37:39.626Z,66.00
2022-07-28T07:40:07.386Z,65.30
2022-07-28T07:42:34.371Z,64.30
2022-07-28T07:45:01.682Z,64.00
2022-07-28T07:47:28.995Z,63.80
2022-07-28T07:49:55.773Z,63.40
2022-07-28T07:52:22.565Z,61.70
2022-07-28T07:54:51.476Z,61.10
2022-07-28T07:57:18.370Z,60.70
2022-07-28T07:59:45.278Z,60.60
2022-07-28T08:02:12.173Z,59.10
2022-07-28T08:04:39.196Z,58.90
2022-07-28T08:07:14.079Z,57.80
2022-07-28T08:09:41.360Z,57.60
2022-07-28T08:12:08.729Z,57.30
2022-07-28T08:14:37.681Z,57.00
2022-07-28T08:17:04.619Z,56.40
2022-07-28T08:19:31.367Z,54.60
2022-07-28T08:21:58.342Z,54.30
2022-07-28T08:24:33.736Z,53.30
2022-07-28T08:27:05.119Z,52.80
2022-07-28T08:29:32.822Z,51.20
2022-07-28T08:32:01.427Z,49.80
2022-07-28T08:34:33.362Z,50.20
2022-07-28T08:37:05.438Z,48.30
2022-07-28T08:39:33.615Z,47.80
2022-07-28T08:42:38.431Z,47.60
2022-07-28T08:45:10.550Z,47.40
2022-07-28T08:47:51.909Z,47.00
2022-07-28T08:50:27.634Z,46.80
2022-07-28T08:52:55.504Z,46.90
2022-07-28T08:55:31.811Z,46.90
2022-07-28T08:58:02.992Z,46.60
2022-07-28T09:00:30.383Z,45.80
2022-07-28T09:03:03.413Z,45.20
2022-07-28T09:05:31.095Z,45.30
2022-07-28T09:07:59.484Z,45.10
2022-07-28T09:10:26.628Z,44.90
2022-07-28T09:12:53.782Z,45.20
2022-07-28T09:15:22.891Z,44.30
2022-07-28T09:17:49.692Z,44.90
2022-07-28T09:20:20.102Z,45.00
2022-07-28T09:23:42.873Z,44.90
2022-07-28T09:26:11.014Z,45.10
2022-07-28T09:28:56.951Z,45.70
2022-07-28T09:31:30.462Z,45.20
2022-07-28T09:34:06.498Z,45.00
2022-07-28T09:36:41.507Z,43.60
2022-07-28T09:39:11.052Z,42.60
2022-07-28T09:41:55.656Z,41.90
2022-07-28T09:44:23.861Z,41.20
2022-07-28T09:46:51.628Z,40.90
2022-07-28T09:49:26.421Z,41.90
2022-07-28T09:52:03.630Z,41.80
2022-07-28T09:54:30.528Z,42.60
2022-07-28T09:56:57.496Z,42.00
2022-07-28T09:59:24.729Z,41.40
2022-07-28T10:01:56.531Z,41.60
2022-07-28T10:04:51.003Z,42.00
2022-07-28T10:07:18.078Z,42.30
2022-07-28T10:09:57.511Z,41.60
2022-07-28T10:12:43.025Z,41.90
2022-07-28T10:15:34.409Z,41.00
2022-07-28T10:18:04.977Z,41.50
2022-07-28T10:20:33.176Z,41.80
2022-07-28T10:23:06.047Z,41.30
2022-07-28T10:25:34.917Z,41.40
2022-07-28T10:28:05.945Z,42.20
2022-07-28T10:30:39.808Z,42.80
2022-07-28T10:33:14.345Z,42.40
2022-07-28T10:35:51.010Z,42.80
2022-07-28T10:38:24.845Z,42.30
2022-07-28T10:40:56.391Z,42.70
2022-07-28T10:43:25.713Z,41.70
2022-07-28T10:46:12.953Z,41.60
2022-07-28T10:48:40.847Z,41.00
2022-07-28T10:51:11.438Z,40.60
2022-07-28T10:53:54.545Z,40.50
2022-07-28T10:56:58.988Z,39.80
2022-07-28T10:59:34.909Z,39.30
2022-07-28T11:02:01.790Z,40.30
2022-07-28T11:04:41.706Z,40.80
2022-07-28T11:07:14.506Z,40.00
2022-07-28T11:09:41.808Z,40.70
2022-07-28T11:12:15.370Z,40.40
2022-07-28T11:14:46.820Z,40.70
2022-07-28T11:17:16.249Z,40.70
2022-07-28T11:19:55.927Z,40.20
2022-07-28T11:22:37.431Z,39.80
2022-07-28T11:25:18.818Z,39.40
2022-07-28T11:27:51.476Z,38.70
2022-07-28T11:30:28.899Z,37.80
2022-07-28T11:32:56.662Z,36.80
2022-07-28T11:35:55.903Z,36.10
2022-07-28T11:38:23.565Z,36.30
2022-07-28T11:40:56.221Z,35.70
2022-07-28T11:43:37.362Z,35.30
2022-07-28T11:46:07.665Z,35.30
2022-07-28T11:48:39.974Z,34.90
2022-07-28T11:51:06.891Z,35.20
2022-07-28T11:53:52.666Z,35.60
2022-07-28T11:56:31.813Z,36.00
2022-07-28T11:59:06.893Z,34.60
2022-07-28T12:01:36.848Z,35.20
2022-07-28T12:04:17.514Z,35.40
2022-07-28T12:06:51.164Z,35.20
2022-07-28T12:09:25.123Z,34.30
2022-07-28T12:11:55.361Z,33.60
2022-07-28T12:14:22.770Z,32.50
2022-07-28T12:16:53.445Z,31.60
2022-07-28T12:19:20.753Z,31.80
2022-07-28T12:21:56.677Z,30.80
2022-07-28T12:24:32.118Z,30.00
2022-07-28T12:27:14.725Z,29.50
2022-07-28T12:29:42.455Z,28.10
2022-07-28T12:32:10.246Z,27.00
2022-07-28T12:34:39.974Z,26.40
2022-07-28T12:37:12.175Z,24.70
2022-07-28T12:39:42.039Z,21.20
2022-07-28T12:42:13.331Z,17.80
2022-07-28T12:44:48.760Z,11.00
2022-07-28T12:47:25.344Z,7.10
2022-07-28T12:50:15.443Z,2.90
2022-07-28T12:53:03.826Z,1.00
2022-07-28T12:55:32.224Z,1.00
2022-07-28T12:57:59.533Z,1.00
2022-07-28T13:00:34.365Z,1.00
2022-07-28T13:03:22.202Z,1.00
2022-07-28T13:06:06.929Z,1.00
2022-07-28T13:08:46.405Z,1.00
2022-07-28T13:14:08.441Z,1.00
2022-07-28T13:16:36.642Z,1.00
2022-07-28T13:19:10.036Z,1.00
2022-07-28T13:21:56.889Z,1.00
2022-07-28T13:24:30.373Z,1.00
2022-07-28T13:26:59.180Z,1.00
2022-07-28T13:29:26.175Z,1.00
2022-07-28T13:31:54.772Z,1.00
2022-07-28T13:34:21.953Z,1.90
2022-07-28T13:36:52.330Z,1.00
2022-07-28T13:39:19.302Z,1.00
2022-07-28T13:41:58.273Z,1.00
2022-07-28T13:44:30.725Z,1.00
2022-07-28T13:46:58.981Z,1.00
2022-07-28T13:49:29.266Z,1.00
2022-07-28T13:51:56.230Z,1.00
2022-07-28T13:54:24.684Z,1.00
2022-07-28T13:57:13.699Z,1.00
2022-07-28T13:59:41.008Z,1.00
2022-07-28T14:02:15.919Z,1.00
2022-07-28T14:04:49.006Z,1.00
2022-07-28T14:07:20.659Z,1.00
2022-07-28T14:09:50.950Z,1.00
2022-07-28T14:12:18.482Z,1.00
2022-07-28T14:14:48.794Z,1.00
2022-07-28T14:20:10.409Z,1.00
2022-07-28T14:22:37.328Z,1.00
2022-07-28T14:25:04.482Z,1.00
2022-07-28T14:27:34.342Z,1.00
2022-07-28T14:30:03.396Z,1.00
2022-07-28T14:32:33.254Z,1.00
2022-07-28T14:35:02.726Z,1.00
2022-07-28T14:37:36.315Z,1.00
2022-07-28T14:40:15.271Z,1.00
2022-07-28T14:42:44.651Z,1.00
2022-07-28T14:45:12.504Z,1.00
2022-07-28T14:47:45.004Z,1.00
2022-07-28T14:50:13.388Z,1.60
2022-07-28T14:52:40.409Z,4.60
2022-07-28T14:55:07.706Z,4.50
2022-07-28T14:57:50.200Z,6.10
2022-07-28T15:00:20.357Z,9.40
2022-07-28T15:02:47.995Z,10.60
2022-07-28T15:05:15.038Z,6.60
2022-07-28T15:07:44.465Z,6.20
2022-07-28T15:10:11.651Z,8.10
2022-07-28T15:12:38.467Z,9.10
2022-07-28T15:15:06.084Z,8.10
2022-07-28T15:17:37.431Z,9.00
2022-07-28T15:20:06.788Z,11.70
2022-07-28T15:22:34.404Z,14.60
2022-07-28T15:25:01.182Z,16.60
2022-07-28T15:27:33.757Z,17.90
2022-07-28T15:30:03.886Z,18.50
2022-07-28T15:32:39.861Z,19.20
2022-07-28T15:35:22.171Z,19.30
2022-07-28T15:37:49.076Z,19.50
2022-07-28T15:40:16.900Z,19.90
2022-07-28T15:42:46.292Z,19.70
2022-07-28T15:45:13.145Z,16.50
2022-07-28T15:47:39.989Z,16.00
2022-07-28T15:50:09.147Z,15.90
2022-07-28T15:52:36.396Z,15.90
2022-07-28T15:55:03.474Z,11.40
2022-07-28T15:57:38.018Z,7.80
2022-07-28T16:00:06.377Z,6.90
2022-07-28T16:02:35.729Z,8.40
2022-07-28T16:05:05.607Z,10.60
2022-07-28T16:07:35.079Z,12.70
2022-07-28T16:10:03.117Z,14.50
2022-07-28T16:12:33.348Z,15.70
2022-07-28T16:15:00.292Z,15.90
2022-07-28T16:17:29.655Z,15.70
2022-07-28T16:19:58.696Z,16.80
2022-07-28T16:22:29.561Z,17.90
2022-07-28T16:24:56.318Z,18.90
2022-07-28T16:27:25.339Z,19.10
2022-07-28T16:29:52.262Z,19.50
2022-07-28T16:32:19.078Z,19.40
2022-07-28T16:34:47.888Z,19.30
2022-07-28T16:37:19.083Z,20.10
2022-07-28T16:39:46.530Z,20.70
2022-07-28T16:42:13.351Z,21.20
2022-07-28T16:44:42.638Z,21.80
2022-07-28T16:47:09.723Z,22.40
2022-07-28T16:49:38.053Z,21.60
2022-07-28T16:52:07.767Z,20.70
2022-07-28T16:54:35.306Z,21.20
2022-07-28T16:57:02.240Z,21.80
2022-07-28T16:59:37.592Z,22.60
2022-07-28T17:02:16.027Z,22.80
2022-07-28T17:04:42.846Z,23.30
2022-07-28T17:07:09.782Z,23.80
2022-07-28T17:09:36.604Z,23.90
2022-07-28T17:12:03.624Z,24.00
2022-07-28T17:14:32.924Z,24.70
2022-07-28T17:16:59.734Z,23.90
2022-07-28T17:19:26.615Z,24.10
2022-07-28T17:22:04.841Z,24.80
2022-07-28T17:24:31.939Z,24.90
2022-07-28T17:29:48.200Z,26.00
2022-07-28T17:32:14.954Z,26.10
2022-07-28T17:34:44.661Z,26.10
2022-07-28T17:37:11.542Z,26.20
2022-07-28T17:39:40.838Z,25.90
2022-07-28T17:42:07.704Z,26.70
2022-07-28T17:44:37.667Z,26.70
2022-07-28T17:47:04.829Z,26.90
2022-07-28T17:49:31.807Z,27.20
2022-07-28T17:51:58.739Z,27.70
2022-07-28T17:54:26.059Z,27.60
2022-07-28T17:56:53.043Z,27.80
2022-07-28T17:59:20.460Z,28.10
2022-07-28T18:01:49.743Z,28.00
2022-07-28T18:04:19.430Z,28.00
2022-07-28T18:06:49.080Z,28.40
2022-07-28T18:09:15.872Z,28.40
2022-07-28T18:11:57.074Z,28.50
2022-07-28T18:14:26.855Z,28.70
2022-07-28T18:16:56.689Z,28.20
2022-07-28T18:19:23.549Z,28.60
2022-07-28T18:21:50.762Z,29.00
2022-07-28T18:24:18.582Z,29.00
2022-07-28T18:26:45.768Z,29.30
2022-07-28T18:29:12.758Z,29.40
2022-07-28T18:31:45.916Z,29.40
2022-07-28T18:34:13.728Z,29.70
2022-07-28T18:36:45.870Z,30.00
2022-07-28T18:39:15.435Z,30.20
2022-07-28T18:41:46.982Z,30.70
2022-07-28T18:44:16.440Z,31.10
2022-07-28T18:46:44.011Z,31.80
2022-07-28T18:49:13.244Z,31.70
2022-07-28T18:51:40.112Z,32.70
2022-07-28T18:54:18.766Z,32.70
2022-07-28T18:56:47.791Z,33.00
2022-07-28T18:59:14.613Z,33.50
2022-07-28T19:01:41.482Z,33.40
2022-07-28T19:04:08.453Z,34.10
2022-07-28T19:06:36.418Z,34.30
2022-07-28T19:09:05.479Z,34.70
2022-07-28T19:11:33.439Z,34.90
2022-07-28T19:14:02.934Z,35.10
2022-07-28T19:16:33.261Z,35.30
2022-07-28T19:19:00.091Z,35.70
2022-07-28T19:21:26.969Z,35.90
2022-07-28T19:23:53.847Z,36.40
2022-07-28T19:26:23.885Z,36.60
2022-07-28T19:28:51.338Z,36.70
2022-07-28T19:31:18.257Z,36.70
2022-07-28T19:33:45.167Z,36.60
2022-07-28T19:36:15.836Z,37.40
2022-07-28T19:38:42.842Z,37.20
2022-07-28T19:41:11.561Z,37.80
2022-07-28T19:43:38.591Z,38.20
2022-07-28T19:46:07.886Z,39.20
2022-07-28T19:48:35.028Z,38.90
2022-07-28T19:51:02.225Z,39.50
2022-07-28T19:53:35.858Z,39.50
2022-07-28T19:56:08.800Z,39.90
2022-07-28T19:58:39.550Z,40.10
2022-07-28T20:01:11.446Z,40.50
2022-07-28T20:04:02.670Z,40.90
2022-07-28T20:06:29.971Z,41.30
2022-07-28T20:08:57.340Z,41.80
2022-07-28T20:11:24.314Z,42.20
2022-07-28T20:13:51.156Z,42.50
2022-07-28T20:16:18.299Z,42.80
2022-07-28T20:18:45.251Z,43.00
2022-07-28T20:21:12.115Z,43.00
2022-07-28T20:23:40.898Z,43.10
2022-07-28T20:26:09.365Z,43.60
2022-07-28T20:28:38.797Z,44.10
2022-07-28T20:31:07.442Z,44.40
2022-07-28T20:33:36.625Z,44.90
2022-07-28T20:36:03.628Z,44.90
2022-07-28T20:38:30.452Z,44.90
2022-07-28T20:40:57.215Z,45.20
2022-07-28T20:43:23.976Z,45.40
2022-07-28T20:46:05.998Z,45.70
2022-07-28T20:48:35.782Z,46.00
2022-07-28T20:51:02.724Z,46.20
2022-07-28T20:53:29.615Z,46.90
2022-07-28T20:55:56.511Z,47.60
2022-07-28T20:58:23.967Z,47.60
2022-07-28T21:00:53.404Z,48.00
2022-07-28T21:03:21.393Z,48.60
2022-07-28T21:05:50.379Z,48.90
2022-07-28T21:08:19.557Z,49.20
2022-07-28T21:10:46.469Z,49.70
2022-07-28T21:13:13.439Z,49.90
2022-07-28T21:15:40.361Z,49.50
2022-07-28T21:18:07.325Z,50.00
2022-07-28T21:20:34.239Z,49.10
2022-07-28T21:23:01.264Z,49.00
2022-07-28T21:25:31.597Z,48.90
2022-07-28T21:28:18.269Z,49.00
2022-07-28T21:30:47.568Z,48.80
2022-07-28T21:33:22.386Z,48.50
2022-07-28T21:35:52.329Z,48.60
2022-07-28T21:38:22.997Z,48.50
2022-07-28T21:40:50.264Z,48.90
2022-07-28T21:43:21.416Z,48.90
2022-07-28T21:45:48.904Z,48.80
2022-07-28T21:48:20.054Z,49.10
2022-07-28T21:50:47.049Z,49.10
2022-07-28T21:53:17.114Z,49.80
2022-07-28T21:55:44.900Z,49.20
2022-07-28T21:58:14.403Z,49.20
2022-07-28T22:00:42.289Z,49.50
2022-07-28T22:03:11.729Z,49.50
2022-07-28T22:05:40.983Z,50.50
2022-07-28T22:08:09.308Z,49.90
2022-07-28T22:10:36.245Z,50.00
2022-07-28T22:13:03.234Z,50.20
2022-07-28T22:15:30.047Z,50.70
2022-07-28T22:17:59.075Z,50.80
2022-07-28T22:20:28.575Z,50.80
2022-07-28T22:22:55.789Z,51.30
2022-07-28T22:25:22.652Z,51.40
2022-07-28T22:27:49.513Z,51.70
2022-07-28T22:30:16.294Z,52.00
2022-07-28T22:32:45.619Z,52.50
2022-07-28T22:35:15.172Z,52.50
2022-07-28T22:37:42.185Z,52.80
2022-07-28T22:40:09.295Z,53.20
2022-07-28T22:42:38.369Z,53.50
2022-07-28T22:45:08.037Z,53.80
2022-07-28T22:47:34.871Z,54.10
2022-07-28T22:50:01.905Z,54.40
2022-07-28T22:52:29.974Z,54.90
2022-07-28T22:54:57.441Z,55.40
2022-07-28T22:57:26.660Z,55.60
2022-07-28T22:59:54.529Z,56.00
2022-07-28T23:02:21.424Z,56.90
2022-07-28T23:04:51.724Z,57.10
2022-07-28T23:07:19.463Z,57.10
2022-07-28T23:09:46.387Z,57.40
2022-07-28T23:12:15.729Z,57.80
2022-07-28T23:14:43.633Z,58.20
2022-07-28T23:17:10.411Z,58.70
2022-07-28T23:19:37.320Z,59.20
2022-07-28T23:22:04.925Z,59.50
2022-07-28T23:24:31.689Z,59.50
2022-07-28T23:27:00.295Z,60.00
2022-07-28T23:29:27.493Z,60.30
2022-07-28T23:31:54.355Z,60.50
2022-07-28T23:34:23.824Z,60.70
2022-07-28T23:36:50.728Z,61.40
2022-07-28T23:39:17.664Z,61.80
2022-07-28T23:41:46.134Z,61.80
2022-07-28T23:44:15.633Z,62.10
2022-07-28T23:46:42.865Z,62.60
2022-07-28T23:49:10.749Z,63.70
2022-07-28T23:51:46.929Z,63.60
2022-07-28T23:54:15.554Z,64.10
2022-07-28T23:56:43.184Z,64.50
2022-07-28T23:59:13.728Z,65.20
